createdAt,value
2018-11-14T00:01:08.353Z,7.77
2018-11-14T00:04:33.098Z,7.57
2018-11-14T00:07:57.791Z,6.97
2018-11-14T00:11:22.463Z,7.07
2018-11-14T00:14:47.175Z,7.47
2018-11-14T00:18:11.872Z,7.43
2018-11-14T00:21:36.533Z,7.80
2018-11-14T00:25:01.256Z,7.97
2018-11-14T00:28:25.912Z,7.70
2018-11-14T00:31:50.574Z,8.43
2018-11-14T00:35:15.407Z,7.90
2018-11-14T00:38:40.063Z,8.50
2018-11-14T00:42:04.746Z,8.87
2018-11-14T00:45:29.470Z,8.17
2018-11-14T00:48:54.147Z,8.13
2018-11-14T00:52:18.854Z,8.10
2018-11-14T00:55:43.540Z,8.43
2018-11-14T00:59:08.202Z,8.07
2018-11-14T01:02:32.850Z,7.90
2018-11-14T01:05:57.561Z,7.97
2018-11-14T01:09:22.221Z,9.07
2018-11-14T01:12:47.583Z,9.27
2018-11-14T01:16:12.268Z,9.80
2018-11-14T01:19:36.881Z,8.73
2018-11-14T01:23:01.617Z,8.60
2018-11-14T01:26:26.340Z,8.50
2018-11-14T01:29:51.062Z,8.80
2018-11-14T01:33:15.703Z,9.47
2018-11-14T01:36:40.381Z,8.87
2018-11-14T01:40:07.949Z,9.30
2018-11-14T01:43:32.671Z,7.73
2018-11-14T01:46:57.305Z,9.37
2018-11-14T01:50:22.003Z,8.63
2018-11-14T01:53:46.702Z,8.73
2018-11-14T01:57:11.378Z,9.60
2018-11-14T02:00:36.121Z,8.70
2018-11-14T02:04:00.792Z,10.20
2018-11-14T02:07:25.518Z,10.13
2018-11-14T02:10:50.201Z,9.57
2018-11-14T02:14:14.885Z,9.47
2018-11-14T02:17:39.684Z,9.47
2018-11-14T02:21:04.384Z,9.23
2018-11-14T02:24:29.054Z,9.30
2018-11-14T02:27:53.734Z,9.17
2018-11-14T02:31:18.377Z,9.93
2018-11-14T02:34:43.020Z,8.40
2018-11-14T02:38:07.781Z,10.87
2018-11-14T02:41:32.503Z,10.37
2018-11-14T02:44:57.238Z,11.67
2018-11-14T02:48:21.907Z,10.07
2018-11-14T02:51:46.596Z,10.17
2018-11-14T02:55:12.864Z,11.27
2018-11-14T02:58:37.590Z,9.50
2018-11-14T03:02:02.339Z,9.50
2018-11-14T03:05:27.032Z,8.83
2018-11-14T03:08:51.760Z,9.30
2018-11-14T03:12:16.633Z,9.27
2018-11-14T03:15:41.255Z,10.30
2018-11-14T03:19:06.036Z,9.67
2018-11-14T03:22:30.690Z,9.37
2018-11-14T03:25:55.378Z,10.47
2018-11-14T03:29:20.127Z,10.00
2018-11-14T03:32:45.286Z,10.53
2018-11-14T03:36:15.172Z,11.47
2018-11-14T03:39:39.851Z,9.93
2018-11-14T03:43:04.611Z,10.63
2018-11-14T03:46:29.246Z,11.03
2018-11-14T03:49:53.918Z,10.40
2018-11-14T03:53:18.600Z,11.57
2018-11-14T03:56:43.253Z,11.80
2018-11-14T04:00:13.502Z,12.07
2018-11-14T04:03:38.198Z,13.23
2018-11-14T04:07:02.908Z,14.53
2018-11-14T04:10:27.609Z,12.73
2018-11-14T04:13:52.291Z,13.43
2018-11-14T04:17:16.971Z,17.40
2018-11-14T04:20:41.626Z,18.57
2018-11-14T04:24:06.474Z,17.73
2018-11-14T04:27:31.203Z,18.23
2018-11-14T04:30:55.853Z,18.03
2018-11-14T04:34:20.519Z,19.73
2018-11-14T04:37:45.281Z,21.43
2018-11-14T04:41:09.946Z,17.90
2018-11-14T04:44:34.556Z,16.43
2018-11-14T04:47:59.359Z,17.93
2018-11-14T04:51:24.034Z,17.07
2018-11-14T04:54:48.762Z,17.07
2018-11-14T04:58:13.461Z,15.80
2018-11-14T05:01:38.133Z,16.47
2018-11-14T05:05:02.837Z,16.47
2018-11-14T05:08:27.552Z,17.37
2018-11-14T05:11:52.278Z,15.20
2018-11-14T05:15:18.232Z,15.33
2018-11-14T05:18:42.937Z,16.83
2018-11-14T05:22:07.831Z,17.63
2018-11-14T05:25:32.540Z,17.87
2018-11-14T05:28:57.276Z,17.27
2018-11-14T05:32:22.017Z,15.80
2018-11-14T05:35:46.726Z,17.13
2018-11-14T05:39:12.225Z,16.90
2018-11-14T05:42:37.069Z,18.57
2018-11-14T05:46:01.761Z,19.23
2018-11-14T05:49:26.421Z,17.27
2018-11-14T05:52:51.163Z,17.07
2018-11-14T05:56:15.758Z,18.30
2018-11-14T05:59:40.412Z,16.97
2018-11-14T06:03:05.519Z,17.50
2018-11-14T06:06:30.218Z,18.27
2018-11-14T06:09:54.853Z,19.77
2018-11-14T06:13:19.530Z,20.30
2018-11-14T06:16:44.316Z,19.63
2018-11-14T06:20:12.213Z,19.37
2018-11-14T06:23:36.962Z,18.60
2018-11-14T06:27:01.547Z,19.57
2018-11-14T06:30:26.570Z,20.00
2018-11-14T06:33:51.278Z,20.53
2018-11-14T06:37:15.999Z,18.23
2018-11-14T06:40:40.708Z,18.60
2018-11-14T06:44:12.078Z,17.93
2018-11-14T06:47:36.768Z,18.07
2018-11-14T06:51:01.460Z,20.10
2018-11-14T06:54:26.101Z,17.40
2018-11-14T06:57:50.838Z,17.00
2018-11-14T07:01:15.540Z,15.37
2018-11-14T07:04:40.192Z,18.70
2018-11-14T07:08:05.113Z,19.90
2018-11-14T07:11:29.795Z,17.20
2018-11-14T07:14:54.529Z,17.37
2018-11-14T07:18:21.538Z,14.87
2018-11-14T07:21:47.223Z,16.13
2018-11-14T07:25:12.019Z,15.73
2018-11-14T07:28:36.681Z,16.90
2018-11-14T07:32:01.408Z,16.40
2018-11-14T07:35:26.141Z,16.50
2018-11-14T07:38:51.453Z,15.93
2018-11-14T07:42:16.186Z,15.53
2018-11-14T07:45:40.893Z,20.03
2018-11-14T07:49:06.132Z,16.00
2018-11-14T07:52:30.851Z,14.50
2018-11-14T07:55:56.330Z,13.03
2018-11-14T07:59:20.990Z,14.30
2018-11-14T08:02:45.926Z,12.93
2018-11-14T08:06:10.641Z,13.40
2018-11-14T08:09:35.266Z,12.60
2018-11-14T08:12:59.908Z,15.33
2018-11-14T08:16:24.700Z,16.73
2018-11-14T08:19:49.392Z,13.93
2018-11-14T08:23:14.103Z,14.90
2018-11-14T08:26:38.819Z,13.97
2018-11-14T08:30:03.577Z,13.97
2018-11-14T08:33:28.310Z,14.53
2018-11-14T08:36:53.010Z,13.27
2018-11-14T08:40:17.696Z,15.60
2018-11-14T08:43:42.385Z,16.70
2018-11-14T08:47:07.480Z,17.13
2018-11-14T08:50:32.206Z,19.87
2018-11-14T08:53:56.969Z,14.70
2018-11-14T08:57:21.948Z,13.80
2018-11-14T09:00:46.631Z,12.90
2018-11-14T09:04:17.969Z,13.03
2018-11-14T09:07:42.690Z,11.80
2018-11-14T09:11:07.897Z,13.33
2018-11-14T09:14:32.558Z,12.07
2018-11-14T09:17:57.215Z,11.10
2018-11-14T09:21:21.907Z,12.87
2018-11-14T09:24:46.640Z,11.43
2018-11-14T09:28:11.308Z,11.93
2018-11-14T09:31:35.959Z,12.93
2018-11-14T09:35:00.664Z,10.40
2018-11-14T09:38:25.274Z,8.98
2018-11-14T09:41:49.945Z,10.23
2018-11-14T09:45:16.239Z,9.70
2018-11-14T09:48:40.960Z,9.13
2018-11-14T09:52:05.689Z,9.98
2018-11-14T09:55:30.414Z,8.38
2018-11-14T09:58:55.156Z,8.15
2018-11-14T10:02:19.843Z,8.35
2018-11-14T10:05:44.621Z,8.50
2018-11-14T10:09:12.215Z,8.60
2018-11-14T10:12:37.312Z,9.48
2018-11-14T10:16:01.989Z,8.85
2018-11-14T10:19:26.629Z,9.95
2018-11-14T10:22:51.649Z,9.30
2018-11-14T10:26:16.293Z,8.48
2018-11-14T10:29:41.014Z,8.20
2018-11-14T10:33:06.866Z,9.80
2018-11-14T10:36:31.571Z,9.10
2018-11-14T10:39:56.208Z,9.98
2018-11-14T10:43:20.884Z,11.80
2018-11-14T10:46:45.684Z,10.00
2018-11-14T10:50:13.805Z,8.35
2018-11-14T10:53:38.487Z,10.50
2018-11-14T10:57:03.158Z,9.75
2018-11-14T11:00:33.606Z,11.25
2018-11-14T11:04:03.552Z,12.20
2018-11-14T11:07:33.403Z,10.48
2018-11-14T11:11:03.162Z,12.25
2018-11-14T11:14:32.768Z,10.50
2018-11-14T11:18:02.988Z,11.48
2018-11-14T11:21:27.683Z,11.85
2018-11-14T11:24:52.350Z,15.13
2018-11-14T11:28:17.046Z,15.32
2018-11-14T11:31:41.778Z,14.58
2018-11-14T11:35:07.037Z,15.48
2018-11-14T11:38:31.701Z,16.70
2018-11-14T11:41:56.409Z,17.67
2018-11-14T11:45:21.108Z,20.82
2018-11-14T11:48:45.744Z,16.48
2018-11-14T11:52:10.430Z,15.18
2018-11-14T11:55:35.151Z,17.73
2018-11-14T11:58:59.829Z,14.75
2018-11-14T12:02:24.597Z,14.43
2018-11-14T12:05:49.277Z,16.48
2018-11-14T12:09:13.989Z,15.03
2018-11-14T12:12:38.694Z,15.85
2018-11-14T12:16:03.456Z,13.03
2018-11-14T12:19:28.171Z,16.30
2018-11-14T12:22:52.933Z,16.15
2018-11-14T12:26:17.593Z,15.28
2018-11-14T12:29:42.217Z,17.30
2018-11-14T12:33:07.034Z,15.93
2018-11-14T12:36:31.698Z,17.87
2018-11-14T12:39:56.387Z,15.20
2018-11-14T12:43:21.195Z,15.05
2018-11-14T12:46:45.895Z,16.93
2018-11-14T12:50:11.780Z,15.08
2018-11-14T12:53:36.505Z,15.25
2018-11-14T12:57:01.215Z,17.48
2018-11-14T13:00:25.945Z,17.50
2018-11-14T13:03:50.591Z,16.80
2018-11-14T13:07:15.315Z,17.45
2018-11-14T13:10:40.057Z,15.58
2018-11-14T13:14:05.151Z,15.18
2018-11-14T13:17:29.818Z,14.53
2018-11-14T13:20:54.512Z,13.60
2018-11-14T13:24:19.208Z,14.53
2018-11-14T13:27:45.064Z,13.50
2018-11-14T13:31:09.753Z,11.85
2018-11-14T13:34:34.449Z,12.33
2018-11-14T13:37:59.178Z,13.55
2018-11-14T13:41:23.972Z,12.47
2018-11-14T13:44:48.830Z,13.45
2018-11-14T13:48:13.541Z,11.15
2018-11-14T13:51:38.239Z,13.15
2018-11-14T13:55:03.102Z,11.53
2018-11-14T13:58:27.826Z,12.80
2018-11-14T14:01:52.513Z,11.85
2018-11-14T14:05:18.536Z,10.58
2018-11-14T14:08:43.247Z,10.18
2018-11-14T14:12:08.024Z,9.10
2018-11-14T14:15:32.728Z,8.78
2018-11-14T14:18:57.439Z,8.48
2018-11-14T14:22:23.115Z,8.98
2018-11-14T14:25:47.803Z,9.05
2018-11-14T14:29:12.525Z,8.68
2018-11-14T14:32:37.607Z,8.03
2018-11-14T14:36:02.342Z,7.97
2018-11-14T14:39:27.016Z,8.33
2018-11-14T14:42:52.063Z,7.47
2018-11-14T14:46:16.697Z,7.53
2018-11-14T14:49:41.326Z,7.95
2018-11-14T14:53:06.500Z,7.72
2018-11-14T14:56:31.334Z,7.37
2018-11-14T14:59:56.054Z,7.30
2018-11-14T15:03:20.854Z,7.00
2018-11-14T15:06:46.299Z,5.25
2018-11-14T15:10:14.921Z,6.08
2018-11-14T15:13:39.863Z,6.20
2018-11-14T15:17:04.572Z,6.87
2018-11-14T15:20:29.310Z,5.83
2018-11-14T15:23:53.978Z,5.90
2018-11-14T15:27:18.737Z,5.05
2018-11-14T15:30:43.367Z,5.37
2018-11-14T15:34:08.391Z,5.15
2018-11-14T15:37:33.056Z,4.95
2018-11-14T15:40:57.702Z,5.62
2018-11-14T15:44:22.391Z,5.22
2018-11-14T15:47:47.109Z,5.15
2018-11-14T15:51:11.763Z,5.10
2018-11-14T15:54:36.459Z,4.72
2018-11-14T15:58:01.251Z,5.30
2018-11-14T16:01:25.884Z,5.85
2018-11-14T16:04:50.572Z,5.47
2018-11-14T16:08:15.264Z,5.67
2018-11-14T16:11:39.945Z,5.58
2018-11-14T16:15:04.781Z,5.28
2018-11-14T16:18:29.513Z,5.12
2018-11-14T16:21:54.226Z,5.10
2018-11-14T16:25:20.178Z,6.53
2018-11-14T16:28:44.840Z,5.67
2018-11-14T16:32:09.583Z,6.17
2018-11-14T16:35:34.848Z,7.03
2018-11-14T16:38:59.564Z,6.90
2018-11-14T16:42:24.242Z,6.90
2018-11-14T16:45:48.967Z,7.37
2018-11-14T16:49:13.690Z,7.27
2018-11-14T16:52:38.363Z,6.53
2018-11-14T16:56:03.017Z,5.40
2018-11-14T16:59:27.693Z,4.60
2018-11-14T17:02:52.373Z,4.83
2018-11-14T17:06:17.110Z,4.70
2018-11-14T17:09:41.803Z,4.53
2018-11-14T17:13:06.757Z,4.20
2018-11-14T17:16:31.436Z,4.93
2018-11-14T17:19:56.143Z,4.87
2018-11-14T17:23:20.841Z,4.10
2018-11-14T17:26:45.512Z,6.47
2018-11-14T17:30:13.244Z,6.63
2018-11-14T17:33:37.913Z,5.63
2018-11-14T17:37:02.727Z,6.33
2018-11-14T17:40:28.710Z,6.23
2018-11-14T17:43:53.417Z,5.87
2018-11-14T17:47:18.380Z,6.53
2018-11-14T17:50:43.088Z,5.37
2018-11-14T17:54:07.791Z,6.63
2018-11-14T17:57:32.408Z,5.50
2018-11-14T18:00:57.163Z,7.20
2018-11-14T18:04:21.863Z,6.30
2018-11-14T18:07:47.502Z,6.20
2018-11-14T18:11:12.316Z,6.33
2018-11-14T18:14:36.998Z,8.70
2018-11-14T18:18:01.812Z,7.43
2018-11-14T18:21:26.490Z,6.60
2018-11-14T18:24:51.223Z,6.53
2018-11-14T18:28:15.953Z,5.63
2018-11-14T18:31:40.697Z,5.07
2018-11-14T18:35:07.736Z,6.60
2018-11-14T18:38:32.459Z,6.97
2018-11-14T18:41:57.207Z,8.17
2018-11-14T18:45:26.400Z,7.73
2018-11-14T18:48:51.100Z,9.37
2018-11-14T18:52:15.837Z,9.50
2018-11-14T18:55:40.527Z,9.40
2018-11-14T18:59:05.214Z,8.07
2018-11-14T19:02:29.927Z,8.87
2018-11-14T19:05:54.646Z,8.00
2018-11-14T19:09:19.339Z,8.63
2018-11-14T19:12:44.726Z,8.13
2018-11-14T19:16:09.506Z,7.67
2018-11-14T19:19:34.180Z,7.43
2018-11-14T19:22:59.836Z,10.83
2018-11-14T19:26:24.585Z,14.57
2018-11-14T19:29:49.346Z,13.93
2018-11-14T19:33:13.996Z,11.20
2018-11-14T19:36:38.691Z,7.60
2018-11-14T19:40:03.437Z,7.83
2018-11-14T19:43:28.106Z,8.57
2018-11-14T19:46:52.754Z,8.13
2018-11-14T19:50:18.657Z,8.10
2018-11-14T19:53:43.308Z,7.77
2018-11-14T19:57:08.110Z,7.93
2018-11-14T20:00:35.374Z,6.53
2018-11-14T20:04:01.146Z,7.27
2018-11-14T20:07:26.656Z,8.00
2018-11-14T20:10:51.953Z,8.50
2018-11-14T20:14:17.857Z,7.57
2018-11-14T20:17:44.410Z,9.00
2018-11-14T20:21:10.883Z,9.47
2018-11-14T20:24:36.553Z,9.87
2018-11-14T20:28:02.956Z,9.60
2018-11-14T20:31:28.829Z,8.73
2018-11-14T20:34:54.553Z,11.07
2018-11-14T20:38:20.914Z,13.37
2018-11-14T20:41:46.545Z,13.80
2018-11-14T20:45:14.359Z,12.53
2018-11-14T20:48:39.739Z,10.67
2018-11-14T20:52:04.589Z,10.87
2018-11-14T20:55:30.813Z,10.93
2018-11-14T20:58:55.745Z,9.80
2018-11-14T21:02:21.525Z,11.73
2018-11-14T21:05:48.098Z,12.73
2018-11-14T21:09:14.472Z,13.20
2018-11-14T21:12:40.537Z,12.00
2018-11-14T21:16:06.340Z,9.73
2018-11-14T21:19:31.523Z,10.73
2018-11-14T21:22:57.066Z,9.97
2018-11-14T21:26:23.733Z,10.47
2018-11-14T21:29:48.684Z,11.87
2018-11-14T21:33:14.770Z,12.33
2018-11-14T21:36:57.262Z,13.63
2018-11-14T21:40:22.041Z,15.40
2018-11-14T21:43:46.823Z,14.03
2018-11-14T21:47:11.641Z,14.50
2018-11-14T21:50:36.546Z,15.77
2018-11-14T21:54:01.316Z,16.80
2018-11-14T21:57:26.101Z,17.57
2018-11-14T22:00:50.780Z,16.40
2018-11-14T22:04:15.450Z,15.33
2018-11-14T22:07:41.629Z,17.63
2018-11-14T22:11:06.406Z,17.30
2018-11-14T22:14:31.292Z,17.07
2018-11-14T22:17:55.993Z,17.77
2018-11-14T22:21:20.782Z,16.47
2018-11-14T22:24:45.393Z,17.60
2018-11-14T22:28:10.184Z,17.07
2018-11-14T22:31:34.823Z,16.67
2018-11-14T22:34:59.674Z,20.20
2018-11-14T22:38:24.301Z,20.53
2018-11-14T22:41:48.995Z,22.13
2018-11-14T22:45:16.436Z,22.03
2018-11-14T22:48:41.073Z,22.20
2018-11-14T22:52:05.909Z,22.80
2018-11-14T22:55:30.634Z,28.07
2018-11-14T22:58:55.322Z,28.13
2018-11-14T23:02:20.064Z,27.63
2018-11-14T23:05:44.743Z,31.10
2018-11-14T23:09:12.230Z,29.90
2018-11-14T23:12:36.868Z,28.60
2018-11-14T23:16:01.569Z,32.40
2018-11-14T23:19:26.240Z,29.67
2018-11-14T23:22:51.621Z,24.77
2018-11-14T23:26:16.352Z,28.00
2018-11-14T23:29:41.111Z,28.73
2018-11-14T23:33:05.953Z,29.10
2018-11-14T23:36:30.702Z,27.17
2018-11-14T23:39:55.377Z,30.03
2018-11-14T23:43:20.041Z,31.47
2018-11-14T23:46:45.171Z,29.03
2018-11-14T23:50:13.692Z,30.27
2018-11-14T23:53:38.350Z,32.73
2018-11-14T23:57:03.111Z,31.63
